sensor_id;sensor_type;location;lat;lon;timestamp;temperature;humidity
4934;DHT22;2482;49.154;8.254;2022-10-31T00:00:53;11.80;99.90
4934;DHT22;2482;49.154;8.254;2022-10-31T00:03:20;12.00;99.90
4934;DHT22;2482;49.154;8.254;2022-10-31T00:05:48;11.90;99.90
4934;DHT22;2482;49.154;8.254;2022-10-31T00:08:17;11.80;99.90
4934;DHT22;2482;49.154;8.254;2022-10-31T00:10:45;11.80;99.90
4934;DHT22;2482;49.154;8.254;2022-10-31T00:13:13;11.70;99.90
4934;DHT22;2482;49.154;8.254;2022-10-31T00:15:41;11.80;99.90
4934;DHT22;2482;49.154;8.254;2022-10-31T00:18:10;11.80;99.90
4934;DHT22;2482;49.154;8.254;2022-10-31T00:20:38;12.10;99.90
4934;DHT22;2482;49.154;8.254;2022-10-31T00:23:06;12.20;99.90
4934;DHT22;2482;49.154;8.254;2022-10-31T00:25:36;12.20;99.90
4934;DHT22;2482;49.154;8.254;2022-10-31T00:28:07;12.10;99.90
4934;DHT22;2482;49.154;8.254;2022-10-31T00:30:35;12.10;99.90
4934;DHT22;2482;49.154;8.254;2022-10-31T00:33:03;12.00;99.90
4934;DHT22;2482;49.154;8.254;2022-10-31T00:35:32;11.80;99.90
4934;DHT22;2482;49.154;8.254;2022-10-31T00:37:59;11.70;99.90
4934;DHT22;2482;49.154;8.254;2022-10-31T00:40:26;11.60;99.90
4934;DHT22;2482;49.154;8.254;2022-10-31T00:42:53;11.50;99.90
4934;DHT22;2482;49.154;8.254;2022-10-31T00:45:20;11.40;99.90
4934;DHT22;2482;49.154;8.254;2022-10-31T00:47:47;11.20;99.90
4934;DHT22;2482;49.154;8.254;2022-10-31T00:53:32;11.20;99.90
4934;DHT22;2482;49.154;8.254;2022-10-31T00:55:59;11.30;99.90
4934;DHT22;2482;49.154;8.254;2022-10-31T00:58:26;11.20;99.90
4934;DHT22;2482;49.154;8.254;2022-10-31T01:00:53;11.20;99.90
4934;DHT22;2482;49.154;8.254;2022-10-31T01:03:31;11.10;99.90
4934;DHT22;2482;49.154;8.254;2022-10-31T01:06:11;11.10;99.90
4934;DHT22;2482;49.154;8.254;2022-10-31T01:08:39;11.10;99.90
4934;DHT22;2482;49.154;8.254;2022-10-31T01:11:22;11.00;99.90
4934;DHT22;2482;49.154;8.254;2022-10-31T01:13:58;11.10;99.90
4934;DHT22;2482;49.154;8.254;2022-10-31T01:16:33;11.10;99.90
4934;DHT22;2482;49.154;8.254;2022-10-31T01:19:10;11.20;99.90
4934;DHT22;2482;49.154;8.254;2022-10-31T01:21:38;11.20;99.90
4934;DHT22;2482;49.154;8.254;2022-10-31T01:24:05;11.00;99.90
4934;DHT22;2482;49.154;8.254;2022-10-31T01:26:32;10.90;99.90
4934;DHT22;2482;49.154;8.254;2022-10-31T01:29:05;10.80;99.90
4934;DHT22;2482;49.154;8.254;2022-10-31T01:31:41;10.80;99.90
4934;DHT22;2482;49.154;8.254;2022-10-31T01:34:14;10.90;99.90
4934;DHT22;2482;49.154;8.254;2022-10-31T01:36:42;10.90;99.90
4934;DHT22;2482;49.154;8.254;2022-10-31T01:39:33;10.90;99.90
4934;DHT22;2482;49.154;8.254;2022-10-31T01:42:01;10.90;99.90
4934;DHT22;2482;49.154;8.254;2022-10-31T01:47:18;11.00;99.90
4934;DHT22;2482;49.154;8.254;2022-10-31T01:49:51;11.10;99.90
4934;DHT22;2482;49.154;8.254;2022-10-31T01:52:40;10.90;99.90
4934;DHT22;2482;49.154;8.254;2022-10-31T01:58:03;10.90;99.90
4934;DHT22;2482;49.154;8.254;2022-10-31T02:00:33;10.80;99.90
4934;DHT22;2482;49.154;8.254;2022-10-31T02:03:00;10.90;99.90
4934;DHT22;2482;49.154;8.254;2022-10-31T02:05:32;10.80;99.90
4934;DHT22;2482;49.154;8.254;2022-10-31T02:08:06;10.80;99.90
4934;DHT22;2482;49.154;8.254;2022-10-31T02:10:36;10.80;99.90
4934;DHT22;2482;49.154;8.254;2022-10-31T02:13:06;10.80;99.90
4934;DHT22;2482;49.154;8.254;2022-10-31T02:15:38;10.80;99.90
4934;DHT22;2482;49.154;8.254;2022-10-31T02:18:09;10.80;99.90
4934;DHT22;2482;49.154;8.254;2022-10-31T02:21:15;10.80;99.90
4934;DHT22;2482;49.154;8.254;2022-10-31T02:24:37;10.80;99.90
4934;DHT22;2482;49.154;8.254;2022-10-31T02:27:07;10.80;99.90
4934;DHT22;2482;49.154;8.254;2022-10-31T02:39:02;10.40;99.90
4934;DHT22;2482;49.154;8.254;2022-10-31T02:47:37;10.30;99.90
4934;DHT22;2482;49.154;8.254;2022-10-31T02:50:12;10.20;99.90
4934;DHT22;2482;49.154;8.254;2022-10-31T02:52:52;10.20;99.90
4934;DHT22;2482;49.154;8.254;2022-10-31T02:58:14;10.20;99.90
4934;DHT22;2482;49.154;8.254;2022-10-31T03:01:20;10.30;99.90
4934;DHT22;2482;49.154;8.254;2022-10-31T03:15:46;10.10;99.90
4934;DHT22;2482;49.154;8.254;2022-10-31T03:18:33;10.00;99.90
4934;DHT22;2482;49.154;8.254;2022-10-31T03:21:03;10.00;99.90
4934;DHT22;2482;49.154;8.254;2022-10-31T03:23:35;9.90;99.90
4934;DHT22;2482;49.154;8.254;2022-10-31T03:26:06;9.90;99.90
4934;DHT22;2482;49.154;8.254;2022-10-31T03:28:38;10.10;99.90
4934;DHT22;2482;49.154;8.254;2022-10-31T03:31:11;9.90;99.90
4934;DHT22;2482;49.154;8.254;2022-10-31T03:33:40;9.80;99.90
4934;DHT22;2482;49.154;8.254;2022-10-31T03:36:10;9.80;99.90
4934;DHT22;2482;49.154;8.254;2022-10-31T03:38:39;9.80;99.90
4934;DHT22;2482;49.154;8.254;2022-10-31T03:41:12;9.80;99.90
4934;DHT22;2482;49.154;8.254;2022-10-31T03:43:48;9.70;99.90
4934;DHT22;2482;49.154;8.254;2022-10-31T03:46:19;9.70;99.90
4934;DHT22;2482;49.154;8.254;2022-10-31T03:48:46;9.60;99.90
4934;DHT22;2482;49.154;8.254;2022-10-31T03:51:15;9.50;99.90
4934;DHT22;2482;49.154;8.254;2022-10-31T03:54:08;9.60;99.90
4934;DHT22;2482;49.154;8.254;2022-10-31T03:57:02;9.60;99.90
4934;DHT22;2482;49.154;8.254;2022-10-31T03:59:55;9.50;99.90
4934;DHT22;2482;49.154;8.254;2022-10-31T04:02:34;9.50;99.90
4934;DHT22;2482;49.154;8.254;2022-10-31T04:05:06;9.50;99.90
4934;DHT22;2482;49.154;8.254;2022-10-31T04:07:37;9.50;99.90
4934;DHT22;2482;49.154;8.254;2022-10-31T04:10:10;9.50;99.90
4934;DHT22;2482;49.154;8.254;2022-10-31T04:12:39;9.50;99.90
4934;DHT22;2482;49.154;8.254;2022-10-31T04:15:07;9.50;99.90
4934;DHT22;2482;49.154;8.254;2022-10-31T04:17:39;9.50;99.90
4934;DHT22;2482;49.154;8.254;2022-10-31T04:20:09;9.40;99.90
4934;DHT22;2482;49.154;8.254;2022-10-31T04:22:36;9.40;99.90
4934;DHT22;2482;49.154;8.254;2022-10-31T04:25:03;9.40;99.90
4934;DHT22;2482;49.154;8.254;2022-10-31T04:27:30;9.40;99.90
4934;DHT22;2482;49.154;8.254;2022-10-31T04:29:57;9.40;99.90
4934;DHT22;2482;49.154;8.254;2022-10-31T04:32:25;9.50;99.90
4934;DHT22;2482;49.154;8.254;2022-10-31T04:34:52;9.50;99.90
4934;DHT22;2482;49.154;8.254;2022-10-31T04:37:19;9.40;99.90
4934;DHT22;2482;49.154;8.254;2022-10-31T04:39:46;9.60;99.90
4934;DHT22;2482;49.154;8.254;2022-10-31T04:42:13;9.60;99.90
4934;DHT22;2482;49.154;8.254;2022-10-31T04:44:40;9.80;99.90
4934;DHT22;2482;49.154;8.254;2022-10-31T04:47:07;9.60;99.90
4934;DHT22;2482;49.154;8.254;2022-10-31T04:49:34;9.70;99.90
4934;DHT22;2482;49.154;8.254;2022-10-31T04:52:01;9.80;99.90
4934;DHT22;2482;49.154;8.254;2022-10-31T04:54:28;9.80;99.90
4934;DHT22;2482;49.154;8.254;2022-10-31T04:56:55;9.70;99.90
4934;DHT22;2482;49.154;8.254;2022-10-31T04:59:21;9.60;99.90
4934;DHT22;2482;49.154;8.254;2022-10-31T05:01:48;9.60;99.90
4934;DHT22;2482;49.154;8.254;2022-10-31T05:04:16;9.60;99.90
4934;DHT22;2482;49.154;8.254;2022-10-31T05:06:43;9.70;99.90
4934;DHT22;2482;49.154;8.254;2022-10-31T05:09:09;9.60;99.90
4934;DHT22;2482;49.154;8.254;2022-10-31T05:11:36;9.70;99.90
4934;DHT22;2482;49.154;8.254;2022-10-31T05:14:03;9.60;99.90
4934;DHT22;2482;49.154;8.254;2022-10-31T05:16:30;9.50;99.90
4934;DHT22;2482;49.154;8.254;2022-10-31T05:18:57;9.60;99.90
4934;DHT22;2482;49.154;8.254;2022-10-31T05:21:24;9.50;99.90
4934;DHT22;2482;49.154;8.254;2022-10-31T05:23:51;9.50;99.90
4934;DHT22;2482;49.154;8.254;2022-10-31T05:26:18;9.40;99.90
4934;DHT22;2482;49.154;8.254;2022-10-31T05:28:45;9.50;99.90
4934;DHT22;2482;49.154;8.254;2022-10-31T05:31:12;9.50;99.90
4934;DHT22;2482;49.154;8.254;2022-10-31T05:33:39;9.40;99.90
4934;DHT22;2482;49.154;8.254;2022-10-31T05:36:06;9.20;99.90
4934;DHT22;2482;49.154;8.254;2022-10-31T05:38:33;9.20;99.90
4934;DHT22;2482;49.154;8.254;2022-10-31T05:41:00;9.20;99.90
4934;DHT22;2482;49.154;8.254;2022-10-31T05:43:28;9.40;99.90
4934;DHT22;2482;49.154;8.254;2022-10-31T05:45:56;9.40;99.90
4934;DHT22;2482;49.154;8.254;2022-10-31T05:48:23;9.40;99.90
4934;DHT22;2482;49.154;8.254;2022-10-31T05:50:50;9.40;99.90
4934;DHT22;2482;49.154;8.254;2022-10-31T05:53:17;9.40;99.90
4934;DHT22;2482;49.154;8.254;2022-10-31T05:55:44;9.40;99.90
4934;DHT22;2482;49.154;8.254;2022-10-31T05:58:11;9.30;99.90
4934;DHT22;2482;49.154;8.254;2022-10-31T06:00:38;9.20;99.90
4934;DHT22;2482;49.154;8.254;2022-10-31T06:03:07;9.00;99.90
4934;DHT22;2482;49.154;8.254;2022-10-31T06:05:39;8.90;99.90
4934;DHT22;2482;49.154;8.254;2022-10-31T06:08:06;8.90;99.90
4934;DHT22;2482;49.154;8.254;2022-10-31T06:10:33;8.90;99.90
4934;DHT22;2482;49.154;8.254;2022-10-31T06:13:00;9.00;99.90
4934;DHT22;2482;49.154;8.254;2022-10-31T06:15:27;9.10;99.90
4934;DHT22;2482;49.154;8.254;2022-10-31T06:17:59;9.20;99.90
4934;DHT22;2482;49.154;8.254;2022-10-31T06:20:28;9.30;99.90
4934;DHT22;2482;49.154;8.254;2022-10-31T06:22:55;9.30;99.90
4934;DHT22;2482;49.154;8.254;2022-10-31T06:25:22;9.20;99.90
4934;DHT22;2482;49.154;8.254;2022-10-31T06:27:49;9.20;99.90
4934;DHT22;2482;49.154;8.254;2022-10-31T06:30:16;9.30;99.90
4934;DHT22;2482;49.154;8.254;2022-10-31T06:32:43;9.30;99.90
4934;DHT22;2482;49.154;8.254;2022-10-31T06:35:10;9.30;99.90
4934;DHT22;2482;49.154;8.254;2022-10-31T06:37:37;9.30;99.90
4934;DHT22;2482;49.154;8.254;2022-10-31T06:40:05;9.30;99.90
4934;DHT22;2482;49.154;8.254;2022-10-31T06:42:32;9.30;99.90
4934;DHT22;2482;49.154;8.254;2022-10-31T06:44:59;9.40;99.90
4934;DHT22;2482;49.154;8.254;2022-10-31T06:47:26;9.50;99.90
4934;DHT22;2482;49.154;8.254;2022-10-31T06:49:53;9.70;99.90
4934;DHT22;2482;49.154;8.254;2022-10-31T06:52:19;9.70;99.90
4934;DHT22;2482;49.154;8.254;2022-10-31T06:54:46;9.50;99.90
4934;DHT22;2482;49.154;8.254;2022-10-31T06:57:13;9.60;99.90
4934;DHT22;2482;49.154;8.254;2022-10-31T06:59:40;9.80;99.90
4934;DHT22;2482;49.154;8.254;2022-10-31T07:02:09;9.80;99.90
4934;DHT22;2482;49.154;8.254;2022-10-31T07:04:37;9.80;99.90
4934;DHT22;2482;49.154;8.254;2022-10-31T07:07:04;9.90;99.90
4934;DHT22;2482;49.154;8.254;2022-10-31T07:09:31;9.90;99.90
4934;DHT22;2482;49.154;8.254;2022-10-31T07:11:58;10.00;99.90
4934;DHT22;2482;49.154;8.254;2022-10-31T07:14:25;10.00;99.90
4934;DHT22;2482;49.154;8.254;2022-10-31T07:16:52;10.10;99.90
4934;DHT22;2482;49.154;8.254;2022-10-31T07:19:19;10.20;99.90
4934;DHT22;2482;49.154;8.254;2022-10-31T07:21:46;10.30;99.90
4934;DHT22;2482;49.154;8.254;2022-10-31T07:24:13;10.20;99.90
4934;DHT22;2482;49.154;8.254;2022-10-31T07:26:40;10.30;99.90
4934;DHT22;2482;49.154;8.254;2022-10-31T07:29:08;10.40;99.90
4934;DHT22;2482;49.154;8.254;2022-10-31T07:31:35;10.70;99.90
4934;DHT22;2482;49.154;8.254;2022-10-31T07:34:02;10.70;99.90
4934;DHT22;2482;49.154;8.254;2022-10-31T07:36:29;10.90;99.90
4934;DHT22;2482;49.154;8.254;2022-10-31T07:38:56;11.10;99.90
4934;DHT22;2482;49.154;8.254;2022-10-31T07:41:25;11.20;99.90
4934;DHT22;2482;49.154;8.254;2022-10-31T07:43:52;11.30;99.90
4934;DHT22;2482;49.154;8.254;2022-10-31T07:46:24;11.60;99.90
4934;DHT22;2482;49.154;8.254;2022-10-31T07:48:51;11.70;99.90
4934;DHT22;2482;49.154;8.254;2022-10-31T07:51:18;11.80;99.90
4934;DHT22;2482;49.154;8.254;2022-10-31T07:53:45;11.90;99.90
4934;DHT22;2482;49.154;8.254;2022-10-31T07:56:11;12.00;99.90
4934;DHT22;2482;49.154;8.254;2022-10-31T07:58:38;12.00;99.90
4934;DHT22;2482;49.154;8.254;2022-10-31T08:01:05;12.20;99.90
4934;DHT22;2482;49.154;8.254;2022-10-31T08:03:33;12.20;99.90
4934;DHT22;2482;49.154;8.254;2022-10-31T08:06:00;12.30;99.90
4934;DHT22;2482;49.154;8.254;2022-10-31T08:08:27;12.40;99.90
4934;DHT22;2482;49.154;8.254;2022-10-31T08:10:59;12.50;99.90
4934;DHT22;2482;49.154;8.254;2022-10-31T08:13:26;12.50;99.90
4934;DHT22;2482;49.154;8.254;2022-10-31T08:15:52;12.60;99.90
4934;DHT22;2482;49.154;8.254;2022-10-31T08:18:20;12.60;99.90
4934;DHT22;2482;49.154;8.254;2022-10-31T08:20:50;12.70;99.90
4934;DHT22;2482;49.154;8.254;2022-10-31T08:23:17;12.80;99.90
4934;DHT22;2482;49.154;8.254;2022-10-31T08:25:44;13.00;99.90
4934;DHT22;2482;49.154;8.254;2022-10-31T08:28:14;13.00;99.90
4934;DHT22;2482;49.154;8.254;2022-10-31T08:30:41;13.00;99.90
4934;DHT22;2482;49.154;8.254;2022-10-31T08:33:11;13.00;99.90
4934;DHT22;2482;49.154;8.254;2022-10-31T08:35:40;12.90;99.90
4934;DHT22;2482;49.154;8.254;2022-10-31T08:38:09;13.10;99.90
4934;DHT22;2482;49.154;8.254;2022-10-31T08:40:37;13.10;99.90
4934;DHT22;2482;49.154;8.254;2022-10-31T08:43:15;13.20;99.90
4934;DHT22;2482;49.154;8.254;2022-10-31T08:45:44;13.30;99.90
4934;DHT22;2482;49.154;8.254;2022-10-31T08:48:16;13.40;99.90
4934;DHT22;2482;49.154;8.254;2022-10-31T08:50:44;13.50;99.90
4934;DHT22;2482;49.154;8.254;2022-10-31T08:55:42;13.80;99.90
4934;DHT22;2482;49.154;8.254;2022-10-31T08:58:15;13.80;99.90
4934;DHT22;2482;49.154;8.254;2022-10-31T09:00:47;14.00;99.90
4934;DHT22;2482;49.154;8.254;2022-10-31T09:03:24;14.10;99.90
4934;DHT22;2482;49.154;8.254;2022-10-31T09:05:56;14.00;99.90
4934;DHT22;2482;49.154;8.254;2022-10-31T09:08:25;14.10;99.90
4934;DHT22;2482;49.154;8.254;2022-10-31T09:10:52;14.20;99.90
4934;DHT22;2482;49.154;8.254;2022-10-31T09:13:23;14.20;99.90
4934;DHT22;2482;49.154;8.254;2022-10-31T09:15:53;14.20;99.90
4934;DHT22;2482;49.154;8.254;2022-10-31T09:18:23;14.30;99.90
4934;DHT22;2482;49.154;8.254;2022-10-31T09:20:50;14.40;99.90
4934;DHT22;2482;49.154;8.254;2022-10-31T09:23:22;14.60;99.90
4934;DHT22;2482;49.154;8.254;2022-10-31T09:25:50;14.70;99.90
4934;DHT22;2482;49.154;8.254;2022-10-31T09:28:20;14.70;99.90
4934;DHT22;2482;49.154;8.254;2022-10-31T09:30:54;14.80;99.90
4934;DHT22;2482;49.154;8.254;2022-10-31T09:33:21;14.70;99.90
4934;DHT22;2482;49.154;8.254;2022-10-31T09:35:48;14.80;99.90
4934;DHT22;2482;49.154;8.254;2022-10-31T09:38:18;14.80;99.90
4934;DHT22;2482;49.154;8.254;2022-10-31T09:40:47;14.90;99.90
4934;DHT22;2482;49.154;8.254;2022-10-31T09:43:22;15.00;99.90
4934;DHT22;2482;49.154;8.254;2022-10-31T09:49:03;15.00;99.90
4934;DHT22;2482;49.154;8.254;2022-10-31T09:52:18;15.30;99.90
4934;DHT22;2482;49.154;8.254;2022-10-31T09:54:53;15.30;99.90
4934;DHT22;2482;49.154;8.254;2022-10-31T09:57:35;15.50;99.90
4934;DHT22;2482;49.154;8.254;2022-10-31T10:00:07;15.60;99.90
4934;DHT22;2482;49.154;8.254;2022-10-31T10:05:14;15.90;99.90
4934;DHT22;2482;49.154;8.254;2022-10-31T10:25:25;16.00;99.90
4934;DHT22;2482;49.154;8.254;2022-10-31T10:28:23;16.00;99.90
4934;DHT22;2482;49.154;8.254;2022-10-31T10:31:14;16.30;99.90
4934;DHT22;2482;49.154;8.254;2022-10-31T10:34:08;16.20;99.90
4934;DHT22;2482;49.154;8.254;2022-10-31T10:36:51;16.50;99.90
4934;DHT22;2482;49.154;8.254;2022-10-31T10:39:23;16.70;99.90
4934;DHT22;2482;49.154;8.254;2022-10-31T10:41:55;16.60;99.90
4934;DHT22;2482;49.154;8.254;2022-10-31T10:44:48;16.30;99.90
4934;DHT22;2482;49.154;8.254;2022-10-31T10:47:44;16.50;99.90
4934;DHT22;2482;49.154;8.254;2022-10-31T10:50:41;16.50;99.90
4934;DHT22;2482;49.154;8.254;2022-10-31T10:59:46;16.80;99.90
4934;DHT22;2482;49.154;8.254;2022-10-31T11:02:19;16.60;99.90
4934;DHT22;2482;49.154;8.254;2022-10-31T11:04:53;16.70;99.90
4934;DHT22;2482;49.154;8.254;2022-10-31T11:07:22;16.70;99.90
4934;DHT22;2482;49.154;8.254;2022-10-31T11:09:49;16.50;99.90
4934;DHT22;2482;49.154;8.254;2022-10-31T11:12:24;16.50;99.90
4934;DHT22;2482;49.154;8.254;2022-10-31T11:14:58;16.60;99.90
4934;DHT22;2482;49.154;8.254;2022-10-31T11:17:31;16.70;99.90
4934;DHT22;2482;49.154;8.254;2022-10-31T11:22:46;16.60;99.90
4934;DHT22;2482;49.154;8.254;2022-10-31T11:25:22;16.70;99.90
4934;DHT22;2482;49.154;8.254;2022-10-31T11:28:04;16.80;99.90
4934;DHT22;2482;49.154;8.254;2022-10-31T11:30:55;16.90;99.90
4934;DHT22;2482;49.154;8.254;2022-10-31T11:33:31;16.80;99.90
4934;DHT22;2482;49.154;8.254;2022-10-31T11:36:03;16.70;99.90
4934;DHT22;2482;49.154;8.254;2022-10-31T11:38:42;16.60;99.90
4934;DHT22;2482;49.154;8.254;2022-10-31T11:41:14;16.90;99.90
4934;DHT22;2482;49.154;8.254;2022-10-31T11:43:57;16.90;99.90
4934;DHT22;2482;49.154;8.254;2022-10-31T11:46:38;17.20;99.90
4934;DHT22;2482;49.154;8.254;2022-10-31T11:49:16;17.20;99.90
4934;DHT22;2482;49.154;8.254;2022-10-31T11:51:50;17.20;99.90
4934;DHT22;2482;49.154;8.254;2022-10-31T11:54:25;17.30;99.90
4934;DHT22;2482;49.154;8.254;2022-10-31T11:56:54;17.40;99.90
4934;DHT22;2482;49.154;8.254;2022-10-31T11:59:26;17.30;99.90
4934;DHT22;2482;49.154;8.254;2022-10-31T12:01:56;17.50;99.90
4934;DHT22;2482;49.154;8.254;2022-10-31T12:04:39;17.60;99.90
4934;DHT22;2482;49.154;8.254;2022-10-31T12:07:08;17.60;99.90
4934;DHT22;2482;49.154;8.254;2022-10-31T12:09:39;17.60;99.90
4934;DHT22;2482;49.154;8.254;2022-10-31T12:12:37;17.30;99.90
4934;DHT22;2482;49.154;8.254;2022-10-31T12:18:17;17.30;99.90
4934;DHT22;2482;49.154;8.254;2022-10-31T12:24:23;17.60;99.90
4934;DHT22;2482;49.154;8.254;2022-10-31T12:27:28;17.40;99.90
4934;DHT22;2482;49.154;8.254;2022-10-31T12:36:37;17.20;99.90
4934;DHT22;2482;49.154;8.254;2022-10-31T12:57:18;17.10;99.90
4934;DHT22;2482;49.154;8.254;2022-10-31T13:00:12;17.00;99.90
4934;DHT22;2482;49.154;8.254;2022-10-31T13:02:47;16.90;99.90
4934;DHT22;2482;49.154;8.254;2022-10-31T13:08:22;17.60;99.90
4934;DHT22;2482;49.154;8.254;2022-10-31T13:11:34;18.00;99.90
4934;DHT22;2482;49.154;8.254;2022-10-31T13:14:10;18.20;99.90
4934;DHT22;2482;49.154;8.254;2022-10-31T13:16:45;18.30;99.90
4934;DHT22;2482;49.154;8.254;2022-10-31T13:19:27;18.50;99.90
4934;DHT22;2482;49.154;8.254;2022-10-31T13:22:17;18.80;99.90
4934;DHT22;2482;49.154;8.254;2022-10-31T13:27:56;18.80;99.90
4934;DHT22;2482;49.154;8.254;2022-10-31T13:30:38;18.90;99.90
4934;DHT22;2482;49.154;8.254;2022-10-31T13:33:17;18.50;99.90
4934;DHT22;2482;49.154;8.254;2022-10-31T13:38:56;18.10;99.90
4934;DHT22;2482;49.154;8.254;2022-10-31T13:44:28;17.90;99.90
4934;DHT22;2482;49.154;8.254;2022-10-31T13:47:18;17.80;99.90
4934;DHT22;2482;49.154;8.254;2022-10-31T13:49:47;17.70;99.90
4934;DHT22;2482;49.154;8.254;2022-10-31T13:52:23;17.70;99.90
4934;DHT22;2482;49.154;8.254;2022-10-31T13:54:52;17.80;99.90
4934;DHT22;2482;49.154;8.254;2022-10-31T13:57:37;17.70;99.90
4934;DHT22;2482;49.154;8.254;2022-10-31T14:00:25;17.40;99.90
4934;DHT22;2482;49.154;8.254;2022-10-31T14:02:56;17.40;99.90
4934;DHT22;2482;49.154;8.254;2022-10-31T14:05:26;17.20;99.90
4934;DHT22;2482;49.154;8.254;2022-10-31T14:08:02;17.00;99.90
4934;DHT22;2482;49.154;8.254;2022-10-31T14:10:33;17.10;99.90
4934;DHT22;2482;49.154;8.254;2022-10-31T14:13:08;17.20;99.90
4934;DHT22;2482;49.154;8.254;2022-10-31T14:15:51;17.10;99.90
4934;DHT22;2482;49.154;8.254;2022-10-31T14:18:24;17.10;99.90
4934;DHT22;2482;49.154;8.254;2022-10-31T14:20:55;17.10;99.90
4934;DHT22;2482;49.154;8.254;2022-10-31T14:23:35;17.10;99.90
4934;DHT22;2482;49.154;8.254;2022-10-31T14:28:58;17.30;99.90
4934;DHT22;2482;49.154;8.254;2022-10-31T14:43:35;17.00;99.90
4934;DHT22;2482;49.154;8.254;2022-10-31T14:46:25;16.90;99.90
4934;DHT22;2482;49.154;8.254;2022-10-31T14:50:07;16.90;99.90
4934;DHT22;2482;49.154;8.254;2022-10-31T14:52:18;16.70;99.90
4934;DHT22;2482;49.154;8.254;2022-10-31T14:54:50;16.70;99.90
4934;DHT22;2482;49.154;8.254;2022-10-31T14:59:57;16.70;99.90
4934;DHT22;2482;49.154;8.254;2022-10-31T15:05:58;16.90;99.90
4934;DHT22;2482;49.154;8.254;2022-10-31T15:08:37;16.80;99.90
4934;DHT22;2482;49.154;8.254;2022-10-31T15:11:10;16.70;99.90
4934;DHT22;2482;49.154;8.254;2022-10-31T15:13:45;16.70;99.90
4934;DHT22;2482;49.154;8.254;2022-10-31T15:16:33;16.80;99.90
4934;DHT22;2482;49.154;8.254;2022-10-31T15:19:06;16.80;99.90
4934;DHT22;2482;49.154;8.254;2022-10-31T15:21:41;16.90;99.90
4934;DHT22;2482;49.154;8.254;2022-10-31T15:24:13;16.60;99.90
4934;DHT22;2482;49.154;8.254;2022-10-31T15:26:49;16.40;99.90
4934;DHT22;2482;49.154;8.254;2022-10-31T15:29:20;16.40;99.90
4934;DHT22;2482;49.154;8.254;2022-10-31T15:31:52;16.40;99.90
4934;DHT22;2482;49.154;8.254;2022-10-31T15:34:39;16.40;99.90
4934;DHT22;2482;49.154;8.254;2022-10-31T15:37:19;16.40;99.90
4934;DHT22;2482;49.154;8.254;2022-10-31T15:39:48;16.30;99.90
4934;DHT22;2482;49.154;8.254;2022-10-31T15:42:32;16.30;99.90
4934;DHT22;2482;49.154;8.254;2022-10-31T15:47:36;16.00;99.90
4934;DHT22;2482;49.154;8.254;2022-10-31T15:50:17;16.00;99.90
4934;DHT22;2482;49.154;8.254;2022-10-31T15:52:49;16.10;99.90
4934;DHT22;2482;49.154;8.254;2022-10-31T15:55:24;16.20;99.90
4934;DHT22;2482;49.154;8.254;2022-10-31T15:58:00;16.10;99.90
4934;DHT22;2482;49.154;8.254;2022-10-31T16:00:33;16.00;99.90
4934;DHT22;2482;49.154;8.254;2022-10-31T16:03:23;16.00;99.90
4934;DHT22;2482;49.154;8.254;2022-10-31T16:05:54;16.10;99.90
4934;DHT22;2482;49.154;8.254;2022-10-31T16:13:39;16.00;99.90
4934;DHT22;2482;49.154;8.254;2022-10-31T16:16:28;15.90;99.90
4934;DHT22;2482;49.154;8.254;2022-10-31T16:19:04;15.80;99.90
4934;DHT22;2482;49.154;8.254;2022-10-31T16:21:35;15.70;99.90
4934;DHT22;2482;49.154;8.254;2022-10-31T16:26:51;15.20;99.90
4934;DHT22;2482;49.154;8.254;2022-10-31T16:29:46;15.20;99.90
4934;DHT22;2482;49.154;8.254;2022-10-31T16:32:28;15.40;99.90
4934;DHT22;2482;49.154;8.254;2022-10-31T16:37:39;15.00;99.90
4934;DHT22;2482;49.154;8.254;2022-10-31T16:40:09;15.00;99.90
4934;DHT22;2482;49.154;8.254;2022-10-31T16:42:37;14.90;99.90
4934;DHT22;2482;49.154;8.254;2022-10-31T16:45:06;15.00;99.90
4934;DHT22;2482;49.154;8.254;2022-10-31T16:47:34;15.10;99.90
4934;DHT22;2482;49.154;8.254;2022-10-31T16:50:01;15.10;99.90
4934;DHT22;2482;49.154;8.254;2022-10-31T16:52:31;14.90;99.90
4934;DHT22;2482;49.154;8.254;2022-10-31T16:55:18;14.50;99.90
4934;DHT22;2482;49.154;8.254;2022-10-31T16:57:48;14.50;99.90
4934;DHT22;2482;49.154;8.254;2022-10-31T17:00:21;14.50;99.90
4934;DHT22;2482;49.154;8.254;2022-10-31T17:02:51;14.50;99.90
4934;DHT22;2482;49.154;8.254;2022-10-31T17:05:20;14.40;99.90
4934;DHT22;2482;49.154;8.254;2022-10-31T17:07:48;14.50;99.90
4934;DHT22;2482;49.154;8.254;2022-10-31T17:10:17;14.30;99.90
4934;DHT22;2482;49.154;8.254;2022-10-31T17:12:46;14.10;99.90
4934;DHT22;2482;49.154;8.254;2022-10-31T17:15:28;14.00;99.90
4934;DHT22;2482;49.154;8.254;2022-10-31T17:18:19;14.00;99.90
4934;DHT22;2482;49.154;8.254;2022-10-31T17:21:01;14.00;99.90
4934;DHT22;2482;49.154;8.254;2022-10-31T17:23:29;14.20;99.90
4934;DHT22;2482;49.154;8.254;2022-10-31T17:25:58;14.00;99.90
4934;DHT22;2482;49.154;8.254;2022-10-31T17:28:26;14.10;99.90
4934;DHT22;2482;49.154;8.254;2022-10-31T17:30:54;14.30;99.90
4934;DHT22;2482;49.154;8.254;2022-10-31T17:33:21;14.30;99.90
4934;DHT22;2482;49.154;8.254;2022-10-31T17:35:48;14.40;99.90
4934;DHT22;2482;49.154;8.254;2022-10-31T17:38:15;14.40;99.90
4934;DHT22;2482;49.154;8.254;2022-10-31T17:40:42;14.40;99.90
4934;DHT22;2482;49.154;8.254;2022-10-31T17:43:10;14.30;99.90
4934;DHT22;2482;49.154;8.254;2022-10-31T17:45:39;14.10;99.90
4934;DHT22;2482;49.154;8.254;2022-10-31T17:48:10;14.10;99.90
4934;DHT22;2482;49.154;8.254;2022-10-31T17:50:38;14.20;99.90
4934;DHT22;2482;49.154;8.254;2022-10-31T17:53:05;14.20;99.90
4934;DHT22;2482;49.154;8.254;2022-10-31T17:55:33;14.30;99.90
4934;DHT22;2482;49.154;8.254;2022-10-31T17:58:03;14.30;99.90
4934;DHT22;2482;49.154;8.254;2022-10-31T18:00:31;14.40;99.90
4934;DHT22;2482;49.154;8.254;2022-10-31T18:02:59;14.50;99.90
4934;DHT22;2482;49.154;8.254;2022-10-31T18:05:28;14.40;99.90
4934;DHT22;2482;49.154;8.254;2022-10-31T18:07:55;14.20;99.90
4934;DHT22;2482;49.154;8.254;2022-10-31T18:10:29;14.10;99.90
4934;DHT22;2482;49.154;8.254;2022-10-31T18:12:56;14.00;99.90
4934;DHT22;2482;49.154;8.254;2022-10-31T18:15:23;13.90;99.90
4934;DHT22;2482;49.154;8.254;2022-10-31T18:17:50;13.70;99.90
4934;DHT22;2482;49.154;8.254;2022-10-31T18:20:17;13.60;99.90
4934;DHT22;2482;49.154;8.254;2022-10-31T18:22:44;13.70;99.90
4934;DHT22;2482;49.154;8.254;2022-10-31T18:25:10;13.90;99.90
4934;DHT22;2482;49.154;8.254;2022-10-31T18:27:37;13.90;99.90
4934;DHT22;2482;49.154;8.254;2022-10-31T18:30:05;13.80;99.90
4934;DHT22;2482;49.154;8.254;2022-10-31T18:32:32;13.80;99.90
4934;DHT22;2482;49.154;8.254;2022-10-31T18:35:00;13.80;99.90
4934;DHT22;2482;49.154;8.254;2022-10-31T18:37:27;13.80;99.90
4934;DHT22;2482;49.154;8.254;2022-10-31T18:39:54;13.70;99.90
4934;DHT22;2482;49.154;8.254;2022-10-31T18:42:22;13.90;99.90
4934;DHT22;2482;49.154;8.254;2022-10-31T18:44:49;13.70;99.90
4934;DHT22;2482;49.154;8.254;2022-10-31T18:47:15;13.60;99.90
4934;DHT22;2482;49.154;8.254;2022-10-31T18:49:44;13.80;99.90
4934;DHT22;2482;49.154;8.254;2022-10-31T18:52:11;13.90;99.90
4934;DHT22;2482;49.154;8.254;2022-10-31T18:54:38;13.80;99.90
4934;DHT22;2482;49.154;8.254;2022-10-31T18:57:05;13.80;99.90
4934;DHT22;2482;49.154;8.254;2022-10-31T18:59:32;13.80;99.90
4934;DHT22;2482;49.154;8.254;2022-10-31T19:01:59;13.80;99.90
4934;DHT22;2482;49.154;8.254;2022-10-31T19:04:26;14.00;99.90
4934;DHT22;2482;49.154;8.254;2022-10-31T19:06:54;14.00;99.90
4934;DHT22;2482;49.154;8.254;2022-10-31T19:09:22;13.90;99.90